West Elwood, Indiana
Current Conditions -  °F | °C
As of 4:35 AM on Friday 31 Oct 2014 (Local Time) from KMZZ Reporting Station
Scattered Clouds Scattered Clouds  
Wind Chill: 38°   Ceiling: Unl
Heat Index: 41°   Visibility: 10mi
Dew Point: 37°   Wind: 5mph
Humidity: 85%   Direction: 280°W
Pressure: 29.99"   Gusts: NA
Location:  40.3067°N, 85.834°W
Report Text: KMZZ 310835Z AUTO 28004KT 10SM SCT031 SCT110 05/03 A2999 RMK AO2 T00490025
Loading
Personal Weather Stations






























Interactive Weather Map
Tropical Storm Tracking
New forecast layout! Learn more

10-Day Weather Forecast

Advertisements
Track Severe Weather on mobile